Lady Joy — V7NN5 — position and weather

sailwx.info

Track history (hours):
 
Tides and Currents Weather Stations Pressure Air Temp Water Temp Dewpoint Dewpoint Depression Visibility Wind Speed Wind Dir Waves Ship Positions

Lady Joy

Last reported at 2018-Jun-21 20:34 UTC. Time now 2018-Jun-25 13:43 UTC.
Position N 43°17' E 006°38'.

Length 50 m; draft 2.8 m.

Type: Pleasure craft. MMSI: 538080044.

Date/timePositionNaut miles runAvg speedWind from/ knotsBaromVisibWave heightAir tempDewpointWater temp
2018-Jun-21 20:34N 43°17' E 006°38'0 0.3
2018-Jun-21 20:28N 43°17' E 006°38'1 1.4
2018-Jun-21 20:00N 43°17' E 006°39'5 9.3
2018-Jun-21 19:29N 43°19' E 006°44'1214.3
2018-Jun-21 18:40N 43°26' E 006°57'212.6
2018-Jun-21 18:30N 43°28' E 006°59'5 9.5
2018-Jun-21 18:00N 43°32' E 007°01'0 0.1
2018-Jun-21 17:25N 43°32' E 007°01'0 0.0
2018-Jun-21 16:55N 43°32' E 007°01'0 0.0
2018-Jun-21 16:25N 43°32' E 007°01'0 0.0
2018-Jun-21 15:55N 43°32' E 007°01'0 0.0
2018-Jun-21 15:28N 43°32' E 007°01'0 0.0
2018-Jun-21 14:58N 43°32' E 007°01'0 0.0
2018-Jun-21 14:22N 43°32' E 007°01'0 0.0
2018-Jun-21 13:58N 43°32' E 007°01'0 0.0
2018-Jun-21 13:28N 43°32' E 007°01'0 0.0
2018-Jun-21 12:55N 43°32' E 007°01'0 0.0
2018-Jun-21 12:28N 43°32' E 007°01'0 0.0
2018-Jun-21 11:58N 43°32' E 007°01'0 0.0
2018-Jun-21 11:28N 43°32' E 007°01'0 0.0
2018-Jun-21 10:55N 43°32' E 007°01'1 1.7
2018-Jun-21 10:31N 43°32' E 007°01'4 7.0
2018-Jun-21 10:01N 43°29' E 007°04'611.8
2018-Jun-21 09:28N 43°34' E 007°11'612.1
2018-Jun-21 08:59N 43°39' E 007°15'  
2018-Jun-18 10:20N 43°41' E 007°17'3 0.2
2018-Jun-17 20:16N 43°42' E 007°21'0 0.0
2018-Jun-17 19:58N 43°42' E 007°21'0 0.0
2018-Jun-17 15:52N 43°42' E 007°21'2 0.5
2018-Jun-17 11:33N 43°40' E 007°22'411.2
2018-Jun-17 11:12N 43°37' E 007°18'311.5
2018-Jun-17 10:58N 43°35' E 007°15'511.2
2018-Jun-17 10:30N 43°32' E 007°10'511.1
2018-Jun-17 10:00N 43°29' E 007°03'4 7.3
2018-Jun-17 09:30N 43°32' E 007°01'0 0.6
2018-Jun-17 08:49N 43°33' E 007°01'0 0.0
2018-Jun-17 08:22N 43°33' E 007°01'0 0.0
2018-Jun-17 07:55N 43°33' E 007°01'0 0.0
2018-Jun-17 07:25N 43°33' E 007°01'0 0.0
2018-Jun-17 05:22N 43°33' E 007°01'0 0.0
2018-Jun-17 04:58N 43°33' E 007°01'0 0.0
2018-Jun-17 04:28N 43°33' E 007°01'0 0.0
2018-Jun-17 03:58N 43°33' E 007°01'0 0.0
2018-Jun-17 03:28N 43°33' E 007°01'0 0.0
2018-Jun-17 02:58N 43°33' E 007°01'0 0.0
2018-Jun-17 02:28N 43°33' E 007°01'0 0.0
2018-Jun-17 01:58N 43°33' E 007°01'0 0.0
2018-Jun-17 01:28N 43°33' E 007°01'0 0.0
2018-Jun-17 00:58N 43°33' E 007°01'0 0.0
2018-Jun-17 00:28N 43°33' E 007°01'0 0.0
2018-Jun-16 23:58N 43°33' E 007°01'0 0.0
2018-Jun-16 23:28N 43°33' E 007°01'0 0.0
2018-Jun-16 22:58N 43°33' E 007°01'0 0.0
2018-Jun-16 22:28N 43°33' E 007°01'0 0.0
2018-Jun-16 21:49N 43°33' E 007°01'0 0.0
2018-Jun-16 21:19N 43°33' E 007°01'0 0.0
2018-Jun-16 20:49N 43°33' E 007°01'0 0.0
2018-Jun-16 20:19N 43°33' E 007°01'0 0.0
2018-Jun-16 19:52N 43°33' E 007°01'0 0.0
2018-Jun-16 19:22N 43°33' E 007°01'0 0.0
2018-Jun-16 18:52N 43°33' E 007°01'0 0.0
2018-Jun-16 18:19N 43°33' E 007°01'0 0.0
2018-Jun-16 17:55N 43°33' E 007°01'0 0.0
2018-Jun-16 17:22N 43°33' E 007°01'0 0.0
2018-Jun-16 16:55N 43°33' E 007°01'0 0.0
2018-Jun-16 16:25N 43°33' E 007°01'0 0.0
2018-Jun-16 15:55N 43°33' E 007°01'0 0.0
2018-Jun-16 15:25N 43°33' E 007°01'0 0.0
2018-Jun-16 14:58N 43°33' E 007°01'0 0.0
2018-Jun-16 14:28N 43°33' E 007°01'0 0.0
2018-Jun-16 13:58N 43°33' E 007°01'0 0.0
2018-Jun-16 13:28N 43°33' E 007°01'0 0.0
2018-Jun-16 12:58N 43°33' E 007°01'0 0.0
2018-Jun-16 12:28N 43°33' E 007°01'0 0.0
2018-Jun-16 11:58N 43°33' E 007°01'0 0.0
2018-Jun-16 11:28N 43°33' E 007°01'0 0.0
2018-Jun-16 10:46N 43°33' E 007°01'0 0.0
2018-Jun-16 10:28N 43°33' E 007°01'0 0.0
2018-Jun-16 09:58N 43°33' E 007°01'0 0.0
2018-Jun-16 09:19N 43°33' E 007°01'0 0.0
2018-Jun-16 07:46N 43°33' E 007°01'0 0.0
2018-Jun-16 07:19N 43°33' E 007°01'0 0.0
2018-Jun-16 06:31N 43°33' E 007°01'0 0.0
2018-Jun-16 06:07N 43°33' E 007°01'0 0.0
2018-Jun-16 05:46N 43°33' E 007°01'0 0.0
2018-Jun-16 05:22N 43°33' E 007°01'0 0.0
2018-Jun-16 04:19N 43°33' E 007°01'0 0.0
2018-Jun-16 03:52N 43°33' E 007°01'0 0.0
2018-Jun-16 03:22N 43°33' E 007°01'0 0.0
2018-Jun-16 02:55N 43°33' E 007°01'0 0.0
2018-Jun-16 02:25N 43°33' E 007°01'0 0.0
2018-Jun-16 01:55N 43°33' E 007°01'0 0.0
2018-Jun-16 01:25N 43°33' E 007°01'0 0.0
2018-Jun-16 00:55N 43°33' E 007°01'0 0.0
2018-Jun-16 00:28N 43°33' E 007°01'0 0.0
2018-Jun-15 23:55N 43°33' E 007°01'0 0.0
2018-Jun-15 23:28N 43°33' E 007°01'0 0.0
2018-Jun-15 22:58N 43°33' E 007°01'0 0.0
2018-Jun-15 22:28N 43°33' E 007°01'0 0.0
2018-Jun-15 21:58N 43°33' E 007°01'0 0.0
2018-Jun-15 21:28N 43°33' E 007°01'0 0.0
2018-Jun-15 20:55N 43°33' E 007°01'0 0.0
2018-Jun-15 20:28N 43°33' E 007°01'0 0.0
2018-Jun-15 19:46N 43°33' E 007°01'0 0.0
2018-Jun-15 19:28N 43°33' E 007°01'0 0.0
2018-Jun-15 18:58N 43°33' E 007°01'0 0.0
2018-Jun-15 18:19N 43°33' E 007°01'0 0.0
2018-Jun-15 17:49N 43°33' E 007°01'0 0.0
2018-Jun-15 17:19N 43°33' E 007°01'0 0.0
2018-Jun-15 16:46N 43°33' E 007°01'0 0.0
2018-Jun-15 16:19N 43°33' E 007°01'0 0.0
2018-Jun-15 15:49N 43°33' E 007°01'0 0.0
2018-Jun-15 15:19N 43°33' E 007°01'0 0.0
2018-Jun-15 14:58N 43°33' E 007°01'0 0.0
2018-Jun-15 14:28N 43°33' E 007°01'0 0.0
2018-Jun-15 13:07N 43°33' E 007°01'0 0.0
2018-Jun-15 12:37N 43°33' E 007°01'0 0.0
2018-Jun-15 12:25N 43°33' E 007°01'0 0.0
2018-Jun-15 11:55N 43°33' E 007°01'0 0.0
2018-Jun-15 11:19N 43°33' E 007°01'0 0.0
2018-Jun-15 10:55N 43°33' E 007°01'0 0.0
2018-Jun-15 10:25N 43°33' E 007°01'0 0.0
2018-Jun-15 09:25N 43°33' E 007°01'0 0.0
2018-Jun-15 08:55N 43°33' E 007°01'0 0.0
2018-Jun-15 08:25N 43°33' E 007°01'0 0.0
2018-Jun-15 07:58N 43°33' E 007°01'0 0.0
2018-Jun-15 06:43N 43°33' E 007°01'0 0.0
2018-Jun-15 06:25N 43°33' E 007°01'0 0.0
2018-Jun-15 05:55N 43°33' E 007°01'0 0.0
2018-Jun-15 05:28N 43°33' E 007°01'0 0.0
2018-Jun-15 04:46N 43°33' E 007°01'0 0.0
2018-Jun-15 04:28N 43°33' E 007°01'0 0.0
2018-Jun-15 03:58N 43°33' E 007°01'0 0.0
2018-Jun-15 03:28N 43°33' E 007°01'0 0.0
2018-Jun-15 02:49N 43°33' E 007°01'0 0.0
2018-Jun-15 02:16N 43°33' E 007°01'0 0.0
2018-Jun-15 01:46N 43°33' E 007°01'0 0.0
2018-Jun-15 01:07N 43°33' E 007°01'0 0.0
2018-Jun-15 00:52N 43°33' E 007°01'0 0.0
2018-Jun-15 00:19N 43°33' E 007°01'0 0.0
2018-Jun-14 23:52N 43°33' E 007°01'0 0.0
2018-Jun-14 23:22N 43°33' E 007°01'0 0.0
2018-Jun-14 22:52N 43°33' E 007°01'0 0.0
2018-Jun-14 22:22N 43°33' E 007°01'0 0.0
2018-Jun-14 21:55N 43°33' E 007°01'0 0.0
2018-Jun-14 21:25N 43°33' E 007°01'0 0.0
2018-Jun-14 20:52N 43°33' E 007°01'0 0.0
2018-Jun-14 19:37N 43°33' E 007°01'0 0.0
2018-Jun-14 19:25N 43°33' E 007°01'0 0.0
2018-Jun-14 18:58N 43°33' E 007°01'0 0.0
2018-Jun-14 18:13N 43°33' E 007°01'0 0.0
2018-Jun-14 17:55N 43°33' E 007°01'0 0.0
2018-Jun-14 16:43N 43°33' E 007°01'0 0.0
2018-Jun-14 16:25N 43°33' E 007°01'0 0.0
2018-Jun-14 15:55N 43°33' E 007°01'0 0.0
2018-Jun-14 15:25N 43°33' E 007°01'0 0.0
2018-Jun-14 14:13N 43°33' E 007°01'0 0.0
2018-Jun-14 13:43N 43°33' E 007°01'0 0.0
2018-Jun-14 13:19N 43°33' E 007°01'0 0.0
2018-Jun-14 12:01N 43°33' E 007°01'0 0.0
2018-Jun-14 11:31N 43°33' E 007°01'0 0.0
2018-Jun-14 11:19N 43°33' E 007°01'0 0.0
2018-Jun-14 10:37N 43°33' E 007°01'0 0.0
2018-Jun-14 10:19N 43°33' E 007°01'0 0.0
2018-Jun-14 09:49N 43°33' E 007°01'0 0.0
2018-Jun-14 09:19N 43°33' E 007°01'0 0.0
2018-Jun-14 08:49N 43°33' E 007°01'0 0.0
2018-Jun-14 08:07N 43°33' E 007°01'0 0.0
2018-Jun-14 07:55N 43°33' E 007°01'0 0.0
2018-Jun-14 07:25N 43°33' E 007°01'0 0.0
2018-Jun-14 06:55N 43°33' E 007°01'0 0.0
2018-Jun-14 06:25N 43°33' E 007°01'0 0.0
2018-Jun-14 05:55N 43°33' E 007°01'0 0.0
2018-Jun-14 05:25N 43°33' E 007°01'0 0.0
2018-Jun-14 04:58N 43°33' E 007°01'0 0.0
2018-Jun-14 04:28N 43°33' E 007°01'0 0.0
2018-Jun-14 03:58N 43°33' E 007°01'0 0.0
2018-Jun-14 03:28N 43°33' E 007°01'0 0.0
2018-Jun-14 02:58N 43°33' E 007°01'0 0.0
2018-Jun-14 02:28N 43°33' E 007°01'0 0.0
2018-Jun-14 01:58N 43°33' E 007°01'0 0.0
2018-Jun-14 01:28N 43°33' E 007°01'0 0.0
2018-Jun-14 00:58N 43°33' E 007°01'0 0.0
2018-Jun-14 00:28N 43°33' E 007°01'0 0.0
2018-Jun-13 23:58N 43°33' E 007°01'0 0.0
2018-Jun-13 23:28N 43°33' E 007°01'0 0.0
2018-Jun-13 22:58N 43°33' E 007°01'0 0.0
2018-Jun-13 22:28N 43°33' E 007°01'0 0.0
2018-Jun-13 21:49N 43°33' E 007°01'0 0.0
2018-Jun-13 21:19N 43°33' E 007°01'0 0.0
2018-Jun-13 20:49N 43°33' E 007°01'0 0.0
2018-Jun-13 20:22N 43°33' E 007°01'0 0.0
2018-Jun-13 19:52N 43°33' E 007°01'0 0.0
2018-Jun-13 19:22N 43°33' E 007°01'0 0.0
2018-Jun-13 18:52N 43°33' E 007°01'0 0.0
2018-Jun-13 18:22N 43°33' E 007°01'0 0.0
2018-Jun-13 17:52N 43°33' E 007°01'0 0.0
2018-Jun-13 17:25N 43°33' E 007°01'0 0.0
2018-Jun-13 16:55N 43°33' E 007°01'0 0.0
2018-Jun-13 16:25N 43°33' E 007°01'0 0.0
2018-Jun-13 15:55N 43°33' E 007°01'0 0.0
2018-Jun-13 15:25N 43°33' E 007°01'0 0.0
2018-Jun-13 14:55N 43°33' E 007°01'0 0.0
2018-Jun-13 14:25N 43°33' E 007°01'0 0.0
2018-Jun-13 13:37N 43°33' E 007°01'0 0.0
2018-Jun-13 13:13N 43°33' E 007°01'0 0.0
2018-Jun-13 12:58N 43°33' E 007°01'0 0.0
2018-Jun-13 12:28N 43°33' E 007°01'0 0.0
2018-Jun-13 11:55N 43°33' E 007°01'0 0.0
2018-Jun-13 11:28N 43°33' E 007°01'0 0.0
2018-Jun-13 09:43N 43°33' E 007°01'0 0.0
2018-Jun-13 09:28N 43°33' E 007°01'0 0.0
2018-Jun-13 08:52N 43°33' E 007°01'0 0.0
2018-Jun-13 08:28N 43°33' E 007°01'0 0.0
2018-Jun-13 07:58N 43°33' E 007°01'0 0.0
2018-Jun-13 07:28N 43°33' E 007°01'0 0.0
2018-Jun-13 06:58N 43°33' E 007°01'0 0.0
2018-Jun-13 06:19N 43°33' E 007°01'0 0.0
2018-Jun-13 05:49N 43°33' E 007°01'0 0.0
2018-Jun-13 05:19N 43°33' E 007°01'0 0.0
2018-Jun-13 04:58N 43°33' E 007°01'0 0.0
2018-Jun-13 04:22N 43°33' E 007°01'0 0.0
2018-Jun-13 03:52N 43°33' E 007°01'0 0.0
2018-Jun-13 03:22N 43°33' E 007°01'0 0.0
2018-Jun-13 02:49N 43°33' E 007°01'0 0.0
2018-Jun-13 02:22N 43°33' E 007°01'0 0.0
2018-Jun-13 01:55N 43°33' E 007°01'0 0.0
2018-Jun-13 01:25N 43°33' E 007°01'0 0.0
2018-Jun-13 00:55N 43°33' E 007°01'0 0.0
2018-Jun-13 00:25N 43°33' E 007°01'0 0.0
2018-Jun-12 23:55N 43°33' E 007°01'0 0.0
2018-Jun-12 23:25N 43°33' E 007°01'0 0.0
2018-Jun-12 22:58N 43°33' E 007°01'0 0.0
2018-Jun-12 22:28N 43°33' E 007°01'0 0.0
2018-Jun-12 21:58N 43°33' E 007°01'0 0.0
2018-Jun-12 21:28N 43°33' E 007°01'0 0.0
2018-Jun-12 20:58N 43°33' E 007°01'0 0.0
2018-Jun-12 19:40N 43°33' E 007°01'0 0.0
2018-Jun-12 19:16N 43°33' E 007°01'0 0.0
2018-Jun-12 18:58N 43°33' E 007°01'0 0.0
2018-Jun-12 18:28N 43°33' E 007°01'0 0.0
2018-Jun-12 17:46N 43°33' E 007°01'0 0.0
2018-Jun-12 17:28N 43°33' E 007°01'0 0.0
2018-Jun-12 16:58N 43°33' E 007°01'0 0.0
2018-Jun-12 16:28N 43°33' E 007°01'0 0.0
2018-Jun-12 15:49N 43°33' E 007°01'0 0.0
2018-Jun-12 15:19N 43°33' E 007°01'0 0.0
2018-Jun-12 14:49N 43°33' E 007°01'0 0.0
2018-Jun-12 14:22N 43°33' E 007°01'0 0.0
2018-Jun-12 13:52N 43°33' E 007°01'0 0.0
2018-Jun-12 13:22N 43°33' E 007°01'0 0.0
2018-Jun-12 12:52N 43°33' E 007°01'0 0.0
2018-Jun-12 12:22N 43°33' E 007°01'0 0.0
2018-Jun-12 11:55N 43°33' E 007°01'0 0.0
2018-Jun-12 11:25N 43°33' E 007°01'0 0.0
2018-Jun-12 10:49N 43°33' E 007°01'0 0.0
2018-Jun-12 10:25N 43°33' E 007°01'0 0.0
2018-Jun-12 09:55N 43°33' E 007°01'0 0.0
2018-Jun-12 09:25N 43°33' E 007°01'0 0.0
2018-Jun-12 08:58N 43°33' E 007°01'0 0.0
2018-Jun-12 08:28N 43°33' E 007°01'0 0.0
2018-Jun-12 07:58N 43°33' E 007°01'0 0.0
2018-Jun-12 07:28N 43°33' E 007°01'0 0.0
2018-Jun-12 06:58N 43°33' E 007°01'0 0.0
2018-Jun-12 06:28N 43°33' E 007°01'0 0.0
2018-Jun-12 05:55N 43°33' E 007°01'0 0.0
2018-Jun-12 05:25N 43°33' E 007°01'0 0.0
2018-Jun-12 04:58N 43°33' E 007°01'0 0.0
2018-Jun-12 04:28N 43°33' E 007°01'0 0.0
2018-Jun-12 03:58N 43°33' E 007°01'0 0.0
2018-Jun-12 03:28N 43°33' E 007°01'0 0.0
2018-Jun-12 02:58N 43°33' E 007°01'0 0.0
2018-Jun-12 02:28N 43°33' E 007°01'0 0.0
2018-Jun-12 01:49N 43°33' E 007°01'0 0.0
2018-Jun-12 01:19N 43°33' E 007°01'0 0.0
2018-Jun-12 00:49N 43°33' E 007°01'0 0.0
2018-Jun-12 00:22N 43°33' E 007°01'0 0.0
2018-Jun-11 23:52N 43°33' E 007°01'0 0.0
2018-Jun-11 23:22N 43°33' E 007°01'0 0.0
2018-Jun-11 22:52N 43°33' E 007°01'0 0.0
2018-Jun-11 22:22N 43°33' E 007°01'0 0.0
2018-Jun-11 21:52N 43°33' E 007°01'0 0.0
2018-Jun-11 21:25N 43°33' E 007°01'0 0.0
2018-Jun-11 20:55N 43°33' E 007°01'  
Track history (hours):
 
Tides and Currents Weather Stations Pressure Air Temp Water Temp Dewpoint Dewpoint Depression Visibility Wind Speed Wind Dir Waves Ship Positions

Lady Joy

Last reported at 2018-Jun-21 20:34 UTC. Time now 2018-Jun-25 13:43 UTC.
Position N 43°17' E 006°38'.

Length 50 m; draft 2.8 m.

Type: Pleasure craft. MMSI: 538080044.

Date/timePositionNaut miles runAvg speedWind from/ knotsBaromVisibWave heightAir tempDewpointWater temp
2018-Jun-21 20:34N 43°17' E 006°38'0 0.3
2018-Jun-21 20:28N 43°17' E 006°38'1 1.4
2018-Jun-21 20:00N 43°17' E 006°39'5 9.3
2018-Jun-21 19:29N 43°19' E 006°44'1214.3
2018-Jun-21 18:40N 43°26' E 006°57'212.6
2018-Jun-21 18:30N 43°28' E 006°59'5 9.5
2018-Jun-21 18:00N 43°32' E 007°01'0 0.1
2018-Jun-21 17:25N 43°32' E 007°01'0 0.0
2018-Jun-21 16:55N 43°32' E 007°01'0 0.0
2018-Jun-21 16:25N 43°32' E 007°01'0 0.0
2018-Jun-21 15:55N 43°32' E 007°01'0 0.0
2018-Jun-21 15:28N 43°32' E 007°01'0 0.0
2018-Jun-21 14:58N 43°32' E 007°01'0 0.0
2018-Jun-21 14:22N 43°32' E 007°01'0 0.0
2018-Jun-21 13:58N 43°32' E 007°01'0 0.0
2018-Jun-21 13:28N 43°32' E 007°01'0 0.0
2018-Jun-21 12:55N 43°32' E 007°01'0 0.0
2018-Jun-21 12:28N 43°32' E 007°01'0 0.0
2018-Jun-21 11:58N 43°32' E 007°01'0 0.0
2018-Jun-21 11:28N 43°32' E 007°01'0 0.0
2018-Jun-21 10:55N 43°32' E 007°01'1 1.7
2018-Jun-21 10:31N 43°32' E 007°01'4 7.0
2018-Jun-21 10:01N 43°29' E 007°04'611.8
2018-Jun-21 09:28N 43°34' E 007°11'612.1
2018-Jun-21 08:59N 43°39' E 007°15'  
2018-Jun-18 10:20N 43°41' E 007°17'3 0.2
2018-Jun-17 20:16N 43°42' E 007°21'0 0.0
2018-Jun-17 19:58N 43°42' E 007°21'0 0.0
2018-Jun-17 15:52N 43°42' E 007°21'2 0.5
2018-Jun-17 11:33N 43°40' E 007°22'411.2
2018-Jun-17 11:12N 43°37' E 007°18'311.5
2018-Jun-17 10:58N 43°35' E 007°15'511.2
2018-Jun-17 10:30N 43°32' E 007°10'511.1
2018-Jun-17 10:00N 43°29' E 007°03'4 7.3
2018-Jun-17 09:30N 43°32' E 007°01'0 0.6
2018-Jun-17 08:49N 43°33' E 007°01'0 0.0
2018-Jun-17 08:22N 43°33' E 007°01'0 0.0
2018-Jun-17 07:55N 43°33' E 007°01'0 0.0
2018-Jun-17 07:25N 43°33' E 007°01'0 0.0
2018-Jun-17 05:22N 43°33' E 007°01'0 0.0
2018-Jun-17 04:58N 43°33' E 007°01'0 0.0
2018-Jun-17 04:28N 43°33' E 007°01'0 0.0
2018-Jun-17 03:58N 43°33' E 007°01'0 0.0
2018-Jun-17 03:28N 43°33' E 007°01'0 0.0
2018-Jun-17 02:58N 43°33' E 007°01'0 0.0
2018-Jun-17 02:28N 43°33' E 007°01'0 0.0
2018-Jun-17 01:58N 43°33' E 007°01'0 0.0
2018-Jun-17 01:28N 43°33' E 007°01'0 0.0
2018-Jun-17 00:58N 43°33' E 007°01'0 0.0
2018-Jun-17 00:28N 43°33' E 007°01'0 0.0
2018-Jun-16 23:58N 43°33' E 007°01'0 0.0
2018-Jun-16 23:28N 43°33' E 007°01'0 0.0
2018-Jun-16 22:58N 43°33' E 007°01'0 0.0
2018-Jun-16 22:28N 43°33' E 007°01'0 0.0
2018-Jun-16 21:49N 43°33' E 007°01'0 0.0
2018-Jun-16 21:19N 43°33' E 007°01'0 0.0
2018-Jun-16 20:49N 43°33' E 007°01'0 0.0
2018-Jun-16 20:19N 43°33' E 007°01'0 0.0
2018-Jun-16 19:52N 43°33' E 007°01'0 0.0
2018-Jun-16 19:22N 43°33' E 007°01'0 0.0
2018-Jun-16 18:52N 43°33' E 007°01'0 0.0
2018-Jun-16 18:19N 43°33' E 007°01'0 0.0
2018-Jun-16 17:55N 43°33' E 007°01'0 0.0
2018-Jun-16 17:22N 43°33' E 007°01'0 0.0
2018-Jun-16 16:55N 43°33' E 007°01'0 0.0
2018-Jun-16 16:25N 43°33' E 007°01'0 0.0
2018-Jun-16 15:55N 43°33' E 007°01'0 0.0
2018-Jun-16 15:25N 43°33' E 007°01'0 0.0
2018-Jun-16 14:58N 43°33' E 007°01'0 0.0
2018-Jun-16 14:28N 43°33' E 007°01'0 0.0
2018-Jun-16 13:58N 43°33' E 007°01'0 0.0
2018-Jun-16 13:28N 43°33' E 007°01'0 0.0
2018-Jun-16 12:58N 43°33' E 007°01'0 0.0
2018-Jun-16 12:28N 43°33' E 007°01'0 0.0
2018-Jun-16 11:58N 43°33' E 007°01'0 0.0
2018-Jun-16 11:28N 43°33' E 007°01'0 0.0
2018-Jun-16 10:46N 43°33' E 007°01'0 0.0
2018-Jun-16 10:28N 43°33' E 007°01'0 0.0
2018-Jun-16 09:58N 43°33' E 007°01'0 0.0
2018-Jun-16 09:19N 43°33' E 007°01'0 0.0
2018-Jun-16 07:46N 43°33' E 007°01'0 0.0
2018-Jun-16 07:19N 43°33' E 007°01'0 0.0
2018-Jun-16 06:31N 43°33' E 007°01'0 0.0
2018-Jun-16 06:07N 43°33' E 007°01'0 0.0
2018-Jun-16 05:46N 43°33' E 007°01'0 0.0
2018-Jun-16 05:22N 43°33' E 007°01'0 0.0
2018-Jun-16 04:19N 43°33' E 007°01'0 0.0
2018-Jun-16 03:52N 43°33' E 007°01'0 0.0
2018-Jun-16 03:22N 43°33' E 007°01'0 0.0
2018-Jun-16 02:55N 43°33' E 007°01'0 0.0
2018-Jun-16 02:25N 43°33' E 007°01'0 0.0
2018-Jun-16 01:55N 43°33' E 007°01'0 0.0
2018-Jun-16 01:25N 43°33' E 007°01'0 0.0
2018-Jun-16 00:55N 43°33' E 007°01'0 0.0
2018-Jun-16 00:28N 43°33' E 007°01'0 0.0
2018-Jun-15 23:55N 43°33' E 007°01'0 0.0
2018-Jun-15 23:28N 43°33' E 007°01'0 0.0
2018-Jun-15 22:58N 43°33' E 007°01'0 0.0
2018-Jun-15 22:28N 43°33' E 007°01'0 0.0
2018-Jun-15 21:58N 43°33' E 007°01'0 0.0
2018-Jun-15 21:28N 43°33' E 007°01'0 0.0
2018-Jun-15 20:55N 43°33' E 007°01'0 0.0
2018-Jun-15 20:28N 43°33' E 007°01'0 0.0
2018-Jun-15 19:46N 43°33' E 007°01'0 0.0
2018-Jun-15 19:28N 43°33' E 007°01'0 0.0
2018-Jun-15 18:58N 43°33' E 007°01'0 0.0
2018-Jun-15 18:19N 43°33' E 007°01'0 0.0
2018-Jun-15 17:49N 43°33' E 007°01'0 0.0
2018-Jun-15 17:19N 43°33' E 007°01'0 0.0
2018-Jun-15 16:46N 43°33' E 007°01'0 0.0
2018-Jun-15 16:19N 43°33' E 007°01'0 0.0
2018-Jun-15 15:49N 43°33' E 007°01'0 0.0
2018-Jun-15 15:19N 43°33' E 007°01'0 0.0
2018-Jun-15 14:58N 43°33' E 007°01'0 0.0
2018-Jun-15 14:28N 43°33' E 007°01'0 0.0
2018-Jun-15 13:07N 43°33' E 007°01'0 0.0
2018-Jun-15 12:37N 43°33' E 007°01'0 0.0
2018-Jun-15 12:25N 43°33' E 007°01'0 0.0
2018-Jun-15 11:55N 43°33' E 007°01'0 0.0
2018-Jun-15 11:19N 43°33' E 007°01'0 0.0
2018-Jun-15 10:55N 43°33' E 007°01'0 0.0
2018-Jun-15 10:25N 43°33' E 007°01'0 0.0
2018-Jun-15 09:25N 43°33' E 007°01'0 0.0
2018-Jun-15 08:55N 43°33' E 007°01'0 0.0
2018-Jun-15 08:25N 43°33' E 007°01'0 0.0
2018-Jun-15 07:58N 43°33' E 007°01'0 0.0
2018-Jun-15 06:43N 43°33' E 007°01'0 0.0
2018-Jun-15 06:25N 43°33' E 007°01'0 0.0
2018-Jun-15 05:55N 43°33' E 007°01'0 0.0
2018-Jun-15 05:28N 43°33' E 007°01'0 0.0
2018-Jun-15 04:46N 43°33' E 007°01'0 0.0
2018-Jun-15 04:28N 43°33' E 007°01'0 0.0
2018-Jun-15 03:58N 43°33' E 007°01'0 0.0
2018-Jun-15 03:28N 43°33' E 007°01'0 0.0
2018-Jun-15 02:49N 43°33' E 007°01'0 0.0
2018-Jun-15 02:16N 43°33' E 007°01'0 0.0
2018-Jun-15 01:46N 43°33' E 007°01'0 0.0
2018-Jun-15 01:07N 43°33' E 007°01'0 0.0
2018-Jun-15 00:52N 43°33' E 007°01'0 0.0
2018-Jun-15 00:19N 43°33' E 007°01'0 0.0
2018-Jun-14 23:52N 43°33' E 007°01'0 0.0
2018-Jun-14 23:22N 43°33' E 007°01'0 0.0
2018-Jun-14 22:52N 43°33' E 007°01'0 0.0
2018-Jun-14 22:22N 43°33' E 007°01'0 0.0
2018-Jun-14 21:55N 43°33' E 007°01'0 0.0
2018-Jun-14 21:25N 43°33' E 007°01'0 0.0
2018-Jun-14 20:52N 43°33' E 007°01'0 0.0
2018-Jun-14 19:37N 43°33' E 007°01'0 0.0
2018-Jun-14 19:25N 43°33' E 007°01'0 0.0
2018-Jun-14 18:58N 43°33' E 007°01'0 0.0
2018-Jun-14 18:13N 43°33' E 007°01'0 0.0
2018-Jun-14 17:55N 43°33' E 007°01'0 0.0
2018-Jun-14 16:43N 43°33' E 007°01'0 0.0
2018-Jun-14 16:25N 43°33' E 007°01'0 0.0
2018-Jun-14 15:55N 43°33' E 007°01'0 0.0
2018-Jun-14 15:25N 43°33' E 007°01'0 0.0
2018-Jun-14 14:13N 43°33' E 007°01'0 0.0
2018-Jun-14 13:43N 43°33' E 007°01'0 0.0
2018-Jun-14 13:19N 43°33' E 007°01'0 0.0
2018-Jun-14 12:01N 43°33' E 007°01'0 0.0
2018-Jun-14 11:31N 43°33' E 007°01'0 0.0
2018-Jun-14 11:19N 43°33' E 007°01'0 0.0
2018-Jun-14 10:37N 43°33' E 007°01'0 0.0
2018-Jun-14 10:19N 43°33' E 007°01'0 0.0
2018-Jun-14 09:49N 43°33' E 007°01'0 0.0
2018-Jun-14 09:19N 43°33' E 007°01'0 0.0
2018-Jun-14 08:49N 43°33' E 007°01'0 0.0
2018-Jun-14 08:07N 43°33' E 007°01'0 0.0
2018-Jun-14 07:55N 43°33' E 007°01'0 0.0
2018-Jun-14 07:25N 43°33' E 007°01'0 0.0
2018-Jun-14 06:55N 43°33' E 007°01'0 0.0
2018-Jun-14 06:25N 43°33' E 007°01'0 0.0
2018-Jun-14 05:55N 43°33' E 007°01'0 0.0
2018-Jun-14 05:25N 43°33' E 007°01'0 0.0
2018-Jun-14 04:58N 43°33' E 007°01'0 0.0
2018-Jun-14 04:28N 43°33' E 007°01'0 0.0
2018-Jun-14 03:58N 43°33' E 007°01'0 0.0
2018-Jun-14 03:28N 43°33' E 007°01'0 0.0
2018-Jun-14 02:58N 43°33' E 007°01'0 0.0
2018-Jun-14 02:28N 43°33' E 007°01'0 0.0
2018-Jun-14 01:58N 43°33' E 007°01'0 0.0
2018-Jun-14 01:28N 43°33' E 007°01'0 0.0
2018-Jun-14 00:58N 43°33' E 007°01'0 0.0
2018-Jun-14 00:28N 43°33' E 007°01'0 0.0
2018-Jun-13 23:58N 43°33' E 007°01'0 0.0
2018-Jun-13 23:28N 43°33' E 007°01'0 0.0
2018-Jun-13 22:58N 43°33' E 007°01'0 0.0
2018-Jun-13 22:28N 43°33' E 007°01'0 0.0
2018-Jun-13 21:49N 43°33' E 007°01'0 0.0
2018-Jun-13 21:19N 43°33' E 007°01'0 0.0
2018-Jun-13 20:49N 43°33' E 007°01'0 0.0
2018-Jun-13 20:22N 43°33' E 007°01'0 0.0
2018-Jun-13 19:52N 43°33' E 007°01'0 0.0
2018-Jun-13 19:22N 43°33' E 007°01'0 0.0
2018-Jun-13 18:52N 43°33' E 007°01'0 0.0
2018-Jun-13 18:22N 43°33' E 007°01'0 0.0
2018-Jun-13 17:52N 43°33' E 007°01'0 0.0
2018-Jun-13 17:25N 43°33' E 007°01'0 0.0
2018-Jun-13 16:55N 43°33' E 007°01'0 0.0
2018-Jun-13 16:25N 43°33' E 007°01'0 0.0
2018-Jun-13 15:55N 43°33' E 007°01'0 0.0
2018-Jun-13 15:25N 43°33' E 007°01'0 0.0
2018-Jun-13 14:55N 43°33' E 007°01'0 0.0
2018-Jun-13 14:25N 43°33' E 007°01'0 0.0
2018-Jun-13 13:37N 43°33' E 007°01'0 0.0
2018-Jun-13 13:13N 43°33' E 007°01'0 0.0
2018-Jun-13 12:58N 43°33' E 007°01'0 0.0
2018-Jun-13 12:28N 43°33' E 007°01'0 0.0
2018-Jun-13 11:55N 43°33' E 007°01'0 0.0
2018-Jun-13 11:28N 43°33' E 007°01'0 0.0
2018-Jun-13 09:43N 43°33' E 007°01'0 0.0
2018-Jun-13 09:28N 43°33' E 007°01'0 0.0
2018-Jun-13 08:52N 43°33' E 007°01'0 0.0
2018-Jun-13 08:28N 43°33' E 007°01'0 0.0
2018-Jun-13 07:58N 43°33' E 007°01'0 0.0
2018-Jun-13 07:28N 43°33' E 007°01'0 0.0
2018-Jun-13 06:58N 43°33' E 007°01'0 0.0
2018-Jun-13 06:19N 43°33' E 007°01'0 0.0
2018-Jun-13 05:49N 43°33' E 007°01'0 0.0
2018-Jun-13 05:19N 43°33' E 007°01'0 0.0
2018-Jun-13 04:58N 43°33' E 007°01'0 0.0
2018-Jun-13 04:22N 43°33' E 007°01'0 0.0
2018-Jun-13 03:52N 43°33' E 007°01'0 0.0
2018-Jun-13 03:22N 43°33' E 007°01'0 0.0
2018-Jun-13 02:49N 43°33' E 007°01'0 0.0
2018-Jun-13 02:22N 43°33' E 007°01'0 0.0
2018-Jun-13 01:55N 43°33' E 007°01'0 0.0
2018-Jun-13 01:25N 43°33' E 007°01'0 0.0
2018-Jun-13 00:55N 43°33' E 007°01'0 0.0
2018-Jun-13 00:25N 43°33' E 007°01'0 0.0
2018-Jun-12 23:55N 43°33' E 007°01'0 0.0
2018-Jun-12 23:25N 43°33' E 007°01'0 0.0
2018-Jun-12 22:58N 43°33' E 007°01'0 0.0
2018-Jun-12 22:28N 43°33' E 007°01'0 0.0
2018-Jun-12 21:58N 43°33' E 007°01'0 0.0
2018-Jun-12 21:28N 43°33' E 007°01'0 0.0
2018-Jun-12 20:58N 43°33' E 007°01'0 0.0
2018-Jun-12 19:40N 43°33' E 007°01'0 0.0
2018-Jun-12 19:16N 43°33' E 007°01'0 0.0
2018-Jun-12 18:58N 43°33' E 007°01'0 0.0
2018-Jun-12 18:28N 43°33' E 007°01'0 0.0
2018-Jun-12 17:46N 43°33' E 007°01'0 0.0
2018-Jun-12 17:28N 43°33' E 007°01'0 0.0
2018-Jun-12 16:58N 43°33' E 007°01'0 0.0
2018-Jun-12 16:28N 43°33' E 007°01'0 0.0
2018-Jun-12 15:49N 43°33' E 007°01'0 0.0
2018-Jun-12 15:19N 43°33' E 007°01'0 0.0
2018-Jun-12 14:49N 43°33' E 007°01'0 0.0
2018-Jun-12 14:22N 43°33' E 007°01'0 0.0
2018-Jun-12 13:52N 43°33' E 007°01'0 0.0
2018-Jun-12 13:22N 43°33' E 007°01'0 0.0
2018-Jun-12 12:52N 43°33' E 007°01'0 0.0
2018-Jun-12 12:22N 43°33' E 007°01'0 0.0
2018-Jun-12 11:55N 43°33' E 007°01'0 0.0
2018-Jun-12 11:25N 43°33' E 007°01'0 0.0
2018-Jun-12 10:49N 43°33' E 007°01'0 0.0
2018-Jun-12 10:25N 43°33' E 007°01'0 0.0
2018-Jun-12 09:55N 43°33' E 007°01'0 0.0
2018-Jun-12 09:25N 43°33' E 007°01'0 0.0
2018-Jun-12 08:58N 43°33' E 007°01'0 0.0
2018-Jun-12 08:28N 43°33' E 007°01'0 0.0
2018-Jun-12 07:58N 43°33' E 007°01'0 0.0
2018-Jun-12 07:28N 43°33' E 007°01'0 0.0
2018-Jun-12 06:58N 43°33' E 007°01'0 0.0
2018-Jun-12 06:28N 43°33' E 007°01'0 0.0
2018-Jun-12 05:55N 43°33' E 007°01'0 0.0
2018-Jun-12 05:25N 43°33' E 007°01'0 0.0
2018-Jun-12 04:58N 43°33' E 007°01'0 0.0
2018-Jun-12 04:28N 43°33' E 007°01'0 0.0
2018-Jun-12 03:58N 43°33' E 007°01'0 0.0
2018-Jun-12 03:28N 43°33' E 007°01'0 0.0
2018-Jun-12 02:58N 43°33' E 007°01'0 0.0
2018-Jun-12 02:28N 43°33' E 007°01'0 0.0
2018-Jun-12 01:49N 43°33' E 007°01'0 0.0
2018-Jun-12 01:19N 43°33' E 007°01'0 0.0
2018-Jun-12 00:49N 43°33' E 007°01'0 0.0
2018-Jun-12 00:22N 43°33' E 007°01'0 0.0
2018-Jun-11 23:52N 43°33' E 007°01'0 0.0
2018-Jun-11 23:22N 43°33' E 007°01'0 0.0
2018-Jun-11 22:52N 43°33' E 007°01'0 0.0
2018-Jun-11 22:22N 43°33' E 007°01'0 0.0
2018-Jun-11 21:52N 43°33' E 007°01'0 0.0
2018-Jun-11 21:25N 43°33' E 007°01'0 0.0
2018-Jun-11 20:55N 43°33' E 007°01'  

Dump ship's entire track history